createdAt,value
2022-08-19T00:01:52.890Z,6.85
2022-08-19T00:04:25.206Z,6.32
2022-08-19T00:06:54.700Z,6.30
2022-08-19T00:09:24.379Z,5.85
2022-08-19T00:11:53.000Z,6.00
2022-08-19T00:14:21.717Z,5.78
2022-08-19T00:16:52.308Z,6.13
2022-08-19T00:19:20.285Z,5.32
2022-08-19T00:21:48.669Z,5.97
2022-08-19T00:24:17.960Z,5.63
2022-08-19T00:26:46.885Z,5.90
2022-08-19T00:29:17.389Z,7.28
2022-08-19T00:31:45.661Z,6.78
2022-08-19T00:34:14.939Z,7.20
2022-08-19T00:36:43.575Z,8.13
2022-08-19T00:39:12.056Z,8.50
2022-08-19T00:41:43.693Z,8.73
2022-08-19T00:44:14.695Z,8.43
2022-08-19T00:46:45.389Z,8.55
2022-08-19T00:49:29.889Z,7.93
2022-08-19T00:52:03.342Z,8.27
2022-08-19T00:54:32.369Z,8.52
2022-08-19T00:57:03.890Z,7.70
2022-08-19T00:59:56.446Z,8.18
2022-08-19T01:02:19.975Z,7.50
2022-08-19T01:04:49.023Z,8.73
2022-08-19T01:07:19.723Z,8.13
2022-08-19T01:09:48.179Z,8.93
2022-08-19T01:12:19.484Z,9.48
2022-08-19T01:14:49.668Z,10.02
2022-08-19T01:17:18.710Z,10.35
2022-08-19T01:19:50.097Z,11.27
2022-08-19T01:22:33.437Z,11.02
2022-08-19T01:25:03.462Z,12.68
2022-08-19T01:27:43.079Z,12.45
2022-08-19T01:30:14.744Z,12.82
2022-08-19T01:32:44.131Z,13.43
2022-08-19T01:35:13.276Z,12.88
2022-08-19T01:37:47.096Z,15.43
2022-08-19T01:40:15.196Z,15.43
2022-08-19T01:42:43.197Z,16.30
2022-08-19T01:45:11.903Z,16.23
2022-08-19T01:47:40.249Z,16.25
2022-08-19T01:50:10.995Z,18.50
2022-08-19T01:52:39.032Z,18.52
2022-08-19T01:55:12.063Z,20.15
2022-08-19T01:57:42.429Z,21.08
2022-08-19T02:00:15.148Z,20.42
2022-08-19T02:02:44.287Z,20.52
2022-08-19T02:05:13.389Z,22.77
2022-08-19T02:07:42.576Z,23.35
2022-08-19T02:10:16.701Z,24.15
2022-08-19T02:12:44.685Z,24.23
2022-08-19T02:15:13.755Z,23.63
2022-08-19T02:17:42.265Z,24.27
2022-08-19T02:20:11.568Z,24.13
2022-08-19T02:22:42.452Z,24.30
2022-08-19T02:25:13.552Z,23.63
2022-08-19T02:27:42.324Z,24.70
2022-08-19T02:30:18.323Z,24.02
2022-08-19T02:32:48.018Z,23.90
2022-08-19T02:35:17.134Z,21.50
2022-08-19T02:38:03.363Z,22.48
2022-08-19T02:40:35.377Z,21.85
2022-08-19T02:43:03.473Z,21.42
2022-08-19T02:45:34.652Z,20.95
2022-08-19T02:48:03.444Z,20.23
2022-08-19T02:50:40.963Z,21.20
2022-08-19T02:53:23.000Z,20.55
2022-08-19T02:55:52.996Z,21.23
2022-08-19T02:58:23.120Z,20.05
2022-08-19T03:00:55.707Z,20.90
2022-08-19T03:03:24.387Z,22.67
2022-08-19T03:05:56.558Z,22.35
2022-08-19T03:08:25.272Z,22.98
2022-08-19T03:10:54.863Z,23.15
2022-08-19T03:13:24.201Z,23.40
2022-08-19T03:15:52.410Z,23.27
2022-08-19T03:18:20.316Z,23.23
2022-08-19T03:20:53.780Z,24.05
2022-08-19T03:23:22.288Z,23.77
2022-08-19T03:26:03.991Z,24.02
2022-08-19T03:28:40.720Z,25.40
2022-08-19T03:31:41.851Z,25.77
2022-08-19T03:34:00.865Z,24.27
2022-08-19T03:36:29.592Z,25.75
2022-08-19T03:39:00.323Z,26.88
2022-08-19T03:41:34.249Z,28.42
2022-08-19T03:44:16.818Z,29.38
2022-08-19T03:46:47.655Z,30.83
2022-08-19T03:49:15.928Z,32.45
2022-08-19T03:51:46.480Z,32.70
2022-08-19T03:54:17.112Z,35.58
2022-08-19T03:56:46.387Z,34.10
2022-08-19T03:59:17.904Z,35.17
2022-08-19T04:01:46.651Z,35.78
2022-08-19T04:04:14.726Z,35.88
2022-08-19T04:06:42.672Z,36.17
2022-08-19T04:09:13.334Z,37.03
2022-08-19T04:11:44.934Z,34.60
2022-08-19T04:14:16.305Z,36.80
2022-08-19T04:16:45.444Z,36.03
2022-08-19T04:19:14.661Z,35.10
2022-08-19T04:21:44.774Z,35.28
2022-08-19T04:24:13.460Z,35.67
2022-08-19T04:26:41.711Z,35.45
2022-08-19T04:29:12.973Z,35.95
2022-08-19T04:31:44.351Z,34.80
2022-08-19T04:34:14.061Z,34.38
2022-08-19T04:36:45.473Z,32.45
2022-08-19T04:39:15.667Z,32.83
2022-08-19T04:42:01.388Z,31.02
2022-08-19T04:44:31.330Z,31.60
2022-08-19T04:47:11.174Z,30.33
2022-08-19T04:49:39.853Z,31.83
2022-08-19T04:52:09.367Z,30.48
2022-08-19T04:54:39.275Z,28.50
2022-08-19T04:57:09.399Z,28.60
2022-08-19T04:59:37.699Z,29.33
2022-08-19T05:02:09.240Z,28.33
2022-08-19T05:04:40.125Z,27.20
2022-08-19T05:07:09.096Z,27.98
2022-08-19T05:09:57.907Z,28.25
2022-08-19T05:12:28.886Z,28.75
2022-08-19T05:14:58.218Z,27.70
2022-08-19T05:17:30.996Z,27.42
2022-08-19T05:20:18.766Z,28.65
2022-08-19T05:22:48.725Z,26.42
2022-08-19T05:25:20.445Z,28.40
2022-08-19T05:27:49.475Z,27.52
2022-08-19T05:30:18.275Z,27.30
2022-08-19T05:32:47.905Z,26.20
2022-08-19T05:35:15.837Z,26.25
2022-08-19T05:37:43.739Z,25.25
2022-08-19T05:40:12.663Z,26.23
2022-08-19T05:42:40.614Z,25.20
2022-08-19T05:45:09.907Z,24.48
2022-08-19T05:47:42.025Z,23.63
2022-08-19T05:50:11.873Z,25.15
2022-08-19T05:52:43.660Z,24.60
2022-08-19T05:55:14.551Z,25.02
2022-08-19T05:57:42.575Z,23.00
2022-08-19T06:00:13.264Z,23.13
2022-08-19T06:02:41.898Z,23.67
2022-08-19T06:05:12.311Z,23.40
2022-08-19T06:07:41.510Z,23.10
2022-08-19T06:10:12.836Z,23.23
2022-08-19T06:12:40.807Z,23.65
2022-08-19T06:15:11.100Z,23.25
2022-08-19T06:17:39.257Z,23.90
2022-08-19T06:20:09.695Z,23.45
2022-08-19T06:22:42.004Z,23.45
2022-08-19T06:25:11.251Z,23.35
2022-08-19T06:27:58.580Z,23.23
2022-08-19T06:30:28.747Z,22.55
2022-08-19T06:32:56.796Z,22.63
2022-08-19T06:35:24.723Z,22.80
2022-08-19T06:37:55.045Z,23.88
2022-08-19T06:40:24.403Z,22.38
2022-08-19T06:42:54.896Z,21.00
2022-08-19T06:45:24.861Z,21.10
2022-08-19T06:47:57.022Z,22.20
2022-08-19T06:50:25.455Z,21.50
2022-08-19T06:52:55.287Z,20.75
2022-08-19T06:55:23.487Z,20.77
2022-08-19T06:57:54.542Z,21.60
2022-08-19T07:00:22.901Z,22.00
2022-08-19T07:02:56.133Z,21.70
2022-08-19T07:05:27.469Z,21.67
2022-08-19T07:08:01.629Z,20.63
2022-08-19T07:10:33.879Z,21.38
2022-08-19T07:13:02.096Z,20.27
2022-08-19T07:15:30.230Z,18.92
2022-08-19T07:17:58.325Z,19.25
2022-08-19T07:20:28.641Z,19.35
2022-08-19T07:22:58.976Z,17.75
2022-08-19T07:25:32.064Z,18.52
2022-08-19T07:28:01.494Z,18.10
2022-08-19T07:30:29.928Z,19.13
2022-08-19T07:32:59.700Z,18.02
2022-08-19T07:35:33.176Z,17.95
2022-08-19T07:38:04.707Z,16.38
2022-08-19T07:40:33.088Z,17.17
2022-08-19T07:43:01.110Z,16.58
2022-08-19T07:45:29.447Z,16.27
2022-08-19T07:47:57.394Z,15.45
2022-08-19T07:50:25.529Z,15.23
2022-08-19T07:52:53.804Z,15.98
2022-08-19T07:55:42.026Z,14.75
2022-08-19T07:58:13.343Z,10.32
2022-08-19T08:00:41.716Z,9.70
2022-08-19T08:03:10.503Z,8.93
2022-08-19T08:05:55.743Z,7.60
2022-08-19T08:08:44.216Z,7.22
2022-08-19T08:11:19.857Z,6.28
2022-08-19T08:14:00.475Z,6.80
2022-08-19T08:16:32.103Z,7.38
2022-08-19T08:19:00.363Z,6.97
2022-08-19T08:21:29.680Z,6.93
2022-08-19T08:23:57.638Z,6.80
2022-08-19T08:26:27.679Z,7.03
2022-08-19T08:28:57.205Z,6.57
2022-08-19T08:31:25.450Z,6.57
2022-08-19T08:33:53.537Z,6.20
2022-08-19T08:36:21.790Z,6.88
2022-08-19T08:38:49.901Z,6.20
2022-08-19T08:41:33.195Z,6.35
2022-08-19T08:44:05.152Z,6.35
2022-08-19T08:46:39.074Z,6.40
2022-08-19T08:49:17.914Z,6.80
2022-08-19T08:51:59.602Z,6.75
2022-08-19T08:54:35.589Z,6.18
2022-08-19T08:57:07.633Z,7.35
2022-08-19T08:59:41.705Z,6.30
2022-08-19T09:02:10.569Z,6.60
2022-08-19T09:04:39.917Z,6.47
2022-08-19T09:07:35.306Z,5.85
2022-08-19T09:10:11.847Z,5.07
2022-08-19T09:12:53.179Z,4.85
2022-08-19T09:15:33.536Z,4.57
2022-08-19T09:18:07.445Z,4.10
2022-08-19T09:20:35.767Z,3.90
2022-08-19T09:23:04.433Z,4.00
2022-08-19T09:25:35.335Z,4.07
2022-08-19T09:28:05.885Z,3.58
2022-08-19T09:30:49.578Z,3.50
2022-08-19T09:33:19.156Z,4.05
2022-08-19T09:35:53.537Z,3.30
2022-08-19T09:38:22.053Z,3.85
2022-08-19T09:40:50.074Z,3.80
2022-08-19T09:43:33.884Z,4.07
2022-08-19T09:46:10.206Z,3.75
2022-08-19T09:48:38.540Z,3.83
2022-08-19T09:51:08.929Z,3.60
2022-08-19T09:53:44.244Z,3.63
2022-08-19T09:56:16.093Z,3.25
2022-08-19T09:58:48.107Z,3.63
2022-08-19T10:01:22.224Z,4.03
2022-08-19T10:03:52.089Z,4.43
2022-08-19T10:06:45.636Z,4.60
2022-08-19T10:09:33.939Z,3.65
2022-08-19T10:12:03.361Z,3.42
2022-08-19T10:14:31.812Z,3.53
2022-08-19T10:17:01.280Z,3.42
2022-08-19T10:19:36.824Z,3.25
2022-08-19T10:22:12.179Z,2.95
2022-08-19T10:24:40.300Z,2.88
2022-08-19T10:27:10.563Z,2.28
2022-08-19T10:29:38.908Z,2.30
2022-08-19T10:32:15.811Z,2.10
2022-08-19T10:34:48.277Z,2.03
2022-08-19T10:37:18.047Z,2.63
2022-08-19T10:39:55.053Z,2.63
2022-08-19T10:42:26.508Z,2.30
2022-08-19T10:44:54.859Z,2.55
2022-08-19T10:47:25.993Z,2.28
2022-08-19T10:50:16.827Z,2.38
2022-08-19T10:52:49.126Z,2.33
2022-08-19T10:55:45.296Z,2.30
2022-08-19T10:58:14.845Z,2.75
2022-08-19T11:00:43.951Z,2.25
2022-08-19T11:03:13.749Z,2.38
2022-08-19T11:05:42.193Z,2.13
2022-08-19T11:08:23.061Z,2.00
2022-08-19T11:10:54.453Z,2.28
2022-08-19T11:13:22.993Z,2.60
2022-08-19T11:15:58.682Z,2.40
2022-08-19T11:18:28.390Z,2.97
2022-08-19T11:20:58.235Z,2.40
2022-08-19T11:23:26.356Z,2.38
2022-08-19T11:25:54.510Z,2.40
2022-08-19T11:28:22.390Z,2.30
2022-08-19T11:30:50.285Z,2.60
2022-08-19T11:33:18.171Z,3.30
2022-08-19T11:35:47.458Z,2.95
2022-08-19T11:38:15.696Z,3.10
2022-08-19T11:40:44.112Z,3.05
2022-08-19T11:43:11.965Z,3.10
2022-08-19T11:45:39.874Z,2.83
2022-08-19T11:48:07.833Z,2.83
2022-08-19T11:50:35.710Z,3.38
2022-08-19T11:53:05.000Z,3.08
2022-08-19T11:55:39.943Z,3.30
2022-08-19T11:58:18.631Z,3.72
2022-08-19T12:00:47.389Z,3.20
2022-08-19T12:03:15.947Z,3.30
2022-08-19T12:05:43.895Z,3.45
2022-08-19T12:08:13.797Z,4.18
2022-08-19T12:10:42.855Z,3.13
2022-08-19T12:13:11.092Z,3.78
2022-08-19T12:15:41.347Z,3.47
2022-08-19T12:18:09.886Z,3.92
2022-08-19T12:20:39.389Z,4.40
2022-08-19T12:23:10.383Z,3.55
2022-08-19T12:25:52.739Z,3.50
2022-08-19T12:28:21.963Z,3.35
2022-08-19T12:30:50.998Z,3.88
2022-08-19T12:33:19.228Z,3.00
2022-08-19T12:35:47.588Z,3.42
2022-08-19T12:38:16.381Z,3.35
2022-08-19T12:40:47.845Z,2.95
2022-08-19T12:43:16.551Z,2.58
2022-08-19T12:45:45.989Z,3.05
2022-08-19T12:48:33.674Z,2.95
2022-08-19T12:51:07.502Z,3.03
2022-08-19T12:53:39.086Z,2.90
2022-08-19T12:56:12.418Z,2.78
2022-08-19T12:58:42.592Z,2.83
2022-08-19T13:01:22.516Z,2.30
2022-08-19T13:03:53.153Z,2.75
2022-08-19T13:06:21.350Z,2.05
2022-08-19T13:08:49.372Z,2.53
2022-08-19T13:11:21.825Z,2.60
2022-08-19T13:13:52.075Z,2.38
2022-08-19T13:16:22.883Z,2.05
2022-08-19T13:18:52.825Z,2.40
2022-08-19T13:21:22.618Z,2.90
2022-08-19T13:23:52.231Z,2.42
2022-08-19T13:26:22.072Z,2.10
2022-08-19T13:29:07.642Z,2.17
2022-08-19T13:31:55.564Z,2.33
2022-08-19T13:34:31.012Z,2.15
2022-08-19T13:36:59.785Z,2.40
2022-08-19T13:39:28.412Z,1.70
2022-08-19T13:41:59.242Z,1.92
2022-08-19T13:44:27.484Z,1.92
2022-08-19T13:46:55.392Z,2.10
2022-08-19T13:49:24.187Z,1.83
2022-08-19T13:51:52.252Z,2.08
2022-08-19T13:54:20.200Z,1.90
2022-08-19T13:56:48.216Z,2.22
2022-08-19T13:59:18.585Z,2.20
2022-08-19T14:01:46.478Z,2.08
2022-08-19T14:04:14.393Z,2.10
2022-08-19T14:06:42.274Z,2.20
2022-08-19T14:09:10.232Z,2.20
2022-08-19T14:11:38.337Z,2.80
2022-08-19T14:14:06.490Z,2.20
2022-08-19T14:16:35.740Z,2.47
2022-08-19T14:19:03.947Z,2.33
2022-08-19T14:21:31.885Z,2.10
2022-08-19T14:23:59.782Z,2.10
2022-08-19T14:26:27.837Z,2.20
2022-08-19T14:28:58.198Z,2.20
2022-08-19T14:31:30.750Z,2.10
2022-08-19T14:34:00.356Z,2.45
2022-08-19T14:36:28.213Z,2.30
2022-08-19T14:38:56.096Z,2.47
2022-08-19T14:41:25.506Z,2.33
2022-08-19T14:43:54.782Z,2.40
2022-08-19T14:46:25.115Z,2.40
2022-08-19T14:48:54.148Z,2.30
2022-08-19T14:51:27.364Z,2.17
2022-08-19T14:53:55.780Z,2.50
2022-08-19T14:56:26.827Z,2.30
2022-08-19T14:58:55.291Z,2.70
2022-08-19T15:01:24.546Z,2.78
2022-08-19T15:03:54.739Z,2.30
2022-08-19T15:06:24.981Z,1.90
2022-08-19T15:08:53.718Z,1.83
2022-08-19T15:11:23.613Z,1.73
2022-08-19T15:13:52.143Z,1.65
2022-08-19T15:16:21.160Z,1.70
2022-08-19T15:18:52.221Z,1.50
2022-08-19T15:21:27.014Z,1.15
2022-08-19T15:23:58.316Z,1.33
2022-08-19T15:26:27.232Z,1.23
2022-08-19T15:28:55.304Z,1.30
2022-08-19T15:31:28.527Z,1.50
2022-08-19T15:33:58.157Z,1.48
2022-08-19T15:36:26.995Z,1.23
2022-08-19T15:38:56.856Z,1.27
2022-08-19T15:41:27.399Z,1.10
2022-08-19T15:43:58.657Z,1.42
2022-08-19T15:46:29.574Z,1.25
2022-08-19T15:49:00.018Z,1.52
2022-08-19T15:51:31.386Z,1.30
2022-08-19T15:54:00.846Z,1.40
2022-08-19T15:56:57.921Z,1.40
2022-08-19T15:59:46.954Z,1.40
2022-08-19T16:02:34.038Z,1.50
2022-08-19T16:05:19.304Z,1.30
2022-08-19T16:07:47.444Z,1.20
2022-08-19T16:10:26.531Z,1.05
2022-08-19T16:12:56.827Z,1.27
2022-08-19T16:15:25.136Z,1.10
2022-08-19T16:17:56.616Z,1.40
2022-08-19T16:20:27.365Z,1.60
2022-08-19T16:22:56.498Z,1.40
2022-08-19T16:25:29.166Z,1.38
2022-08-19T16:28:06.716Z,1.75
2022-08-19T16:30:37.070Z,1.70
2022-08-19T16:33:05.096Z,1.70
2022-08-19T16:35:33.013Z,1.55
2022-08-19T16:38:01.263Z,2.30
2022-08-19T16:40:30.541Z,1.70
2022-08-19T16:42:58.834Z,2.15
2022-08-19T16:45:26.767Z,2.00
2022-08-19T16:47:57.503Z,2.22
2022-08-19T16:50:46.112Z,2.50
2022-08-19T16:53:13.492Z,2.70
2022-08-19T16:55:42.840Z,2.70
2022-08-19T16:58:10.702Z,2.78
2022-08-19T17:00:39.630Z,2.72
2022-08-19T17:03:14.235Z,3.20
2022-08-19T17:05:44.161Z,2.60
2022-08-19T17:08:12.149Z,3.03
2022-08-19T17:10:43.196Z,2.65
2022-08-19T17:13:18.342Z,2.60
2022-08-19T17:15:46.255Z,2.70
2022-08-19T17:18:15.413Z,2.47
2022-08-19T17:20:46.825Z,2.97
2022-08-19T17:23:16.028Z,2.58
2022-08-19T17:25:44.012Z,2.90
2022-08-19T17:28:15.553Z,2.72
2022-08-19T17:30:45.229Z,3.00
2022-08-19T17:33:13.368Z,3.10
2022-08-19T17:35:43.662Z,3.40
2022-08-19T17:38:14.293Z,3.40
2022-08-19T17:40:43.094Z,3.80
2022-08-19T17:43:12.686Z,3.40
2022-08-19T17:45:51.059Z,3.58
2022-08-19T17:48:18.972Z,4.07
2022-08-19T17:50:48.308Z,4.00
2022-08-19T17:53:16.185Z,4.00
2022-08-19T17:55:44.380Z,4.18
2022-08-19T17:58:16.610Z,3.90
2022-08-19T18:00:53.336Z,4.07
2022-08-19T18:03:22.069Z,3.78
2022-08-19T18:05:50.316Z,3.08
2022-08-19T18:08:18.245Z,2.90
2022-08-19T18:10:46.279Z,3.25
2022-08-19T18:13:17.614Z,2.88
2022-08-19T18:15:45.949Z,2.85
2022-08-19T18:18:15.656Z,2.60
2022-08-19T18:20:44.327Z,2.95
2022-08-19T18:23:43.955Z,3.15
2022-08-19T18:26:00.221Z,2.92
2022-08-19T18:28:28.197Z,2.97
2022-08-19T18:30:56.531Z,2.67
2022-08-19T18:33:28.452Z,3.25
2022-08-19T18:35:56.287Z,2.35
2022-08-19T18:38:41.972Z,2.40
2022-08-19T18:41:28.651Z,2.58
2022-08-19T18:44:14.000Z,2.03
2022-08-19T18:46:59.540Z,1.98
2022-08-19T18:49:35.268Z,2.30
2022-08-19T18:52:06.010Z,2.03
2022-08-19T18:54:34.395Z,1.92
2022-08-19T18:57:04.358Z,2.17
2022-08-19T18:59:32.796Z,2.25
2022-08-19T19:02:08.605Z,2.33
2022-08-19T19:04:39.875Z,2.38
2022-08-19T19:07:09.831Z,2.65
2022-08-19T19:09:42.858Z,3.03
2022-08-19T19:12:12.320Z,2.53
2022-08-19T19:14:49.409Z,2.35
2022-08-19T19:17:28.605Z,2.70
2022-08-19T19:19:58.721Z,2.13
2022-08-19T19:22:27.112Z,2.10
2022-08-19T19:24:55.420Z,2.22
2022-08-19T19:27:23.815Z,2.00
2022-08-19T19:29:58.568Z,2.28
2022-08-19T19:32:29.630Z,2.40
2022-08-19T19:34:59.542Z,2.22
2022-08-19T19:37:27.430Z,2.15
2022-08-19T19:39:56.219Z,2.25
2022-08-19T19:42:24.921Z,2.42
2022-08-19T19:45:01.664Z,2.22
2022-08-19T19:47:31.093Z,2.08
2022-08-19T19:50:16.310Z,2.15
2022-08-19T19:52:46.686Z,2.50
2022-08-19T19:55:20.651Z,2.45
2022-08-19T19:57:49.984Z,2.33
2022-08-19T20:00:19.257Z,2.38
2022-08-19T20:02:50.064Z,2.40
2022-08-19T20:05:21.645Z,2.20
2022-08-19T20:08:08.288Z,2.40
2022-08-19T20:10:39.255Z,2.38
2022-08-19T20:13:09.001Z,2.28
2022-08-19T20:15:41.734Z,2.40
2022-08-19T20:18:12.033Z,2.35
2022-08-19T20:20:41.797Z,2.55
2022-08-19T20:23:09.862Z,2.20
2022-08-19T20:25:39.768Z,2.10
2022-08-19T20:28:07.688Z,2.67
2022-08-19T20:30:39.537Z,2.03
2022-08-19T20:33:23.410Z,2.20
2022-08-19T20:35:52.660Z,2.45
2022-08-19T20:38:20.696Z,2.47
2022-08-19T20:40:48.696Z,2.35
2022-08-19T20:43:18.436Z,2.67
2022-08-19T20:45:47.012Z,2.22
2022-08-19T20:48:14.889Z,3.45
2022-08-19T20:50:42.871Z,2.58
2022-08-19T20:53:14.843Z,3.08
2022-08-19T20:55:45.258Z,2.70
2022-08-19T20:58:14.981Z,2.22
2022-08-19T21:00:44.779Z,2.55
2022-08-19T21:03:14.410Z,2.70
2022-08-19T21:05:49.648Z,2.30
2022-08-19T21:08:19.222Z,2.30
2022-08-19T21:10:47.619Z,2.10
2022-08-19T21:13:16.554Z,2.08
2022-08-19T21:15:48.961Z,2.03
2022-08-19T21:18:19.464Z,2.60
2022-08-19T21:20:48.328Z,2.03
2022-08-19T21:23:23.051Z,2.20
2022-08-19T21:25:55.957Z,2.05
2022-08-19T21:28:34.308Z,2.10
2022-08-19T21:31:05.549Z,2.10
2022-08-19T21:33:45.124Z,2.10
2022-08-19T21:36:13.294Z,2.17
2022-08-19T21:38:43.274Z,2.55
2022-08-19T21:41:11.155Z,2.20
2022-08-19T21:43:39.831Z,2.20
2022-08-19T21:46:15.066Z,2.40
2022-08-19T21:48:42.928Z,2.10
2022-08-19T21:51:10.808Z,2.22
2022-08-19T21:54:03.728Z,2.25
2022-08-19T21:56:31.644Z,2.45
2022-08-19T21:58:59.538Z,1.92
2022-08-19T22:01:27.503Z,1.75
2022-08-19T22:03:55.449Z,1.70
2022-08-19T22:06:25.624Z,1.80
2022-08-19T22:08:55.379Z,2.20
2022-08-19T22:11:25.344Z,2.10
2022-08-19T22:13:54.334Z,2.10
2022-08-19T22:16:22.841Z,1.85
2022-08-19T22:18:51.612Z,2.40
2022-08-19T22:21:21.269Z,2.00
2022-08-19T22:24:08.127Z,2.33
2022-08-19T22:26:37.453Z,2.00
2022-08-19T22:29:05.399Z,2.10
2022-08-19T22:31:33.300Z,2.20
2022-08-19T22:34:01.829Z,2.28
2022-08-19T22:36:31.651Z,1.92
2022-08-19T22:39:00.891Z,2.22
2022-08-19T22:41:28.901Z,2.05
2022-08-19T22:43:58.141Z,2.10
2022-08-19T22:46:26.061Z,2.10
2022-08-19T22:49:00.846Z,1.73
2022-08-19T22:51:46.618Z,1.92
2022-08-19T22:54:14.501Z,1.92
2022-08-19T22:56:43.320Z,1.85
2022-08-19T22:59:12.626Z,1.90
2022-08-19T23:01:41.708Z,1.70
2022-08-19T23:04:09.622Z,1.88
2022-08-19T23:06:41.467Z,1.52
2022-08-19T23:09:10.386Z,1.80
2022-08-19T23:11:41.934Z,1.85
2022-08-19T23:14:12.720Z,2.00
2022-08-19T23:16:41.661Z,1.77
2022-08-19T23:19:10.042Z,2.03
2022-08-19T23:21:38.360Z,2.22
2022-08-19T23:24:06.753Z,2.20
2022-08-19T23:26:36.138Z,2.20
2022-08-19T23:29:22.434Z,2.33
2022-08-19T23:31:51.773Z,2.22
2022-08-19T23:34:19.669Z,2.20
2022-08-19T23:36:48.335Z,2.50
2022-08-19T23:39:16.335Z,2.00
2022-08-19T23:41:44.188Z,2.20
2022-08-19T23:44:14.965Z,2.08
2022-08-19T23:46:55.058Z,2.00
2022-08-19T23:49:26.212Z,2.03
2022-08-19T23:51:56.096Z,2.47
2022-08-19T23:54:27.558Z,2.92
2022-08-19T23:57:13.322Z,2.70
2022-08-19T23:59:44.987Z,2.90
